sensor_id;sensor_type;location;lat;lon;timestamp;P1;durP1;ratioP1;P2;durP2;ratioP2
20861;SDS011;10591;52.532;13.348;2022-12-15T00:00:19;62.67;;;32.47;;
20861;SDS011;10591;52.532;13.348;2022-12-15T00:03:07;60.73;;;30.57;;
20861;SDS011;10591;52.532;13.348;2022-12-15T00:05:58;62.27;;;30.63;;
20861;SDS011;10591;52.532;13.348;2022-12-15T00:08:47;61.67;;;32.17;;
20861;SDS011;10591;52.532;13.348;2022-12-15T00:11:39;64.63;;;32.30;;
20861;SDS011;10591;52.532;13.348;2022-12-15T00:14:29;58.03;;;31.57;;
20861;SDS011;10591;52.532;13.348;2022-12-15T00:17:18;62.80;;;33.00;;
20861;SDS011;10591;52.532;13.348;2022-12-15T00:20:08;61.37;;;31.73;;
20861;SDS011;10591;52.532;13.348;2022-12-15T00:22:57;61.03;;;30.87;;
20861;SDS011;10591;52.532;13.348;2022-12-15T00:25:47;59.17;;;31.07;;
20861;SDS011;10591;52.532;13.348;2022-12-15T00:28:35;59.60;;;30.80;;
20861;SDS011;10591;52.532;13.348;2022-12-15T00:31:26;58.87;;;30.87;;
20861;SDS011;10591;52.532;13.348;2022-12-15T00:34:15;59.23;;;30.73;;
20861;SDS011;10591;52.532;13.348;2022-12-15T00:37:03;62.27;;;31.73;;
20861;SDS011;10591;52.532;13.348;2022-12-15T00:39:52;56.50;;;30.43;;
20861;SDS011;10591;52.532;13.348;2022-12-15T00:42:25;64.33;;;32.47;;
20861;SDS011;10591;52.532;13.348;2022-12-15T00:44:56;59.50;;;30.90;;
20861;SDS011;10591;52.532;13.348;2022-12-15T00:47:27;59.73;;;30.77;;
20861;SDS011;10591;52.532;13.348;2022-12-15T00:49:59;59.03;;;31.73;;
20861;SDS011;10591;52.532;13.348;2022-12-15T00:52:48;58.90;;;31.90;;
20861;SDS011;10591;52.532;13.348;2022-12-15T00:55:37;64.30;;;31.07;;
20861;SDS011;10591;52.532;13.348;2022-12-15T00:58:26;64.60;;;31.57;;
20861;SDS011;10591;52.532;13.348;2022-12-15T01:01:14;62.33;;;31.07;;
20861;SDS011;10591;52.532;13.348;2022-12-15T01:04:03;56.83;;;30.67;;
20861;SDS011;10591;52.532;13.348;2022-12-15T01:06:51;64.47;;;32.97;;
20861;SDS011;10591;52.532;13.348;2022-12-15T01:09:39;59.17;;;32.67;;
20861;SDS011;10591;52.532;13.348;2022-12-15T01:12:28;70.37;;;33.63;;
20861;SDS011;10591;52.532;13.348;2022-12-15T01:15:17;61.80;;;31.17;;
20861;SDS011;10591;52.532;13.348;2022-12-15T01:18:05;62.53;;;29.57;;
20861;SDS011;10591;52.532;13.348;2022-12-15T01:20:58;64.90;;;31.77;;
20861;SDS011;10591;52.532;13.348;2022-12-15T01:23:33;68.10;;;32.60;;
20861;SDS011;10591;52.532;13.348;2022-12-15T01:26:05;61.40;;;30.90;;
20861;SDS011;10591;52.532;13.348;2022-12-15T01:28:38;63.73;;;31.47;;
20861;SDS011;10591;52.532;13.348;2022-12-15T01:31:10;63.23;;;31.90;;
20861;SDS011;10591;52.532;13.348;2022-12-15T01:33:41;60.07;;;29.93;;
20861;SDS011;10591;52.532;13.348;2022-12-15T01:36:12;58.73;;;30.10;;
20861;SDS011;10591;52.532;13.348;2022-12-15T01:38:46;56.23;;;30.90;;
20861;SDS011;10591;52.532;13.348;2022-12-15T01:41:18;60.83;;;32.23;;
20861;SDS011;10591;52.532;13.348;2022-12-15T01:43:50;60.07;;;30.37;;
20861;SDS011;10591;52.532;13.348;2022-12-15T01:46:22;60.43;;;30.60;;
20861;SDS011;10591;52.532;13.348;2022-12-15T01:49:13;61.20;;;30.07;;
20861;SDS011;10591;52.532;13.348;2022-12-15T01:51:50;56.23;;;29.77;;
20861;SDS011;10591;52.532;13.348;2022-12-15T01:54:28;58.87;;;28.93;;
20861;SDS011;10591;52.532;13.348;2022-12-15T01:57:04;53.20;;;28.43;;
20861;SDS011;10591;52.532;13.348;2022-12-15T01:59:41;56.73;;;29.37;;
20861;SDS011;10591;52.532;13.348;2022-12-15T02:02:14;57.17;;;29.80;;
20861;SDS011;10591;52.532;13.348;2022-12-15T02:04:49;59.00;;;30.33;;
20861;SDS011;10591;52.532;13.348;2022-12-15T02:07:24;58.33;;;30.63;;
20861;SDS011;10591;52.532;13.348;2022-12-15T02:09:57;55.77;;;29.17;;
20861;SDS011;10591;52.532;13.348;2022-12-15T02:12:46;56.17;;;28.77;;
20861;SDS011;10591;52.532;13.348;2022-12-15T02:15:32;51.83;;;28.10;;
20861;SDS011;10591;52.532;13.348;2022-12-15T02:21:01;54.27;;;27.17;;
20861;SDS011;10591;52.532;13.348;2022-12-15T02:23:58;56.43;;;29.57;;
20861;SDS011;10591;52.532;13.348;2022-12-15T02:32:45;58.00;;;29.73;;
20861;SDS011;10591;52.532;13.348;2022-12-15T02:35:31;53.63;;;28.17;;
20861;SDS011;10591;52.532;13.348;2022-12-15T02:38:14;56.43;;;28.10;;
20861;SDS011;10591;52.532;13.348;2022-12-15T02:40:46;50.37;;;28.07;;
20861;SDS011;10591;52.532;13.348;2022-12-15T02:43:19;54.47;;;27.77;;
20861;SDS011;10591;52.532;13.348;2022-12-15T02:48:58;53.20;;;27.70;;
20861;SDS011;10591;52.532;13.348;2022-12-15T02:51:30;51.40;;;27.40;;
20861;SDS011;10591;52.532;13.348;2022-12-15T02:54:21;53.67;;;26.93;;
20861;SDS011;10591;52.532;13.348;2022-12-15T02:59:39;46.90;;;25.60;;
20861;SDS011;10591;52.532;13.348;2022-12-15T03:02:11;49.63;;;26.20;;
20861;SDS011;10591;52.532;13.348;2022-12-15T03:04:43;50.33;;;26.10;;
20861;SDS011;10591;52.532;13.348;2022-12-15T03:07:15;50.33;;;27.73;;
20861;SDS011;10591;52.532;13.348;2022-12-15T03:09:45;53.93;;;27.43;;
20861;SDS011;10591;52.532;13.348;2022-12-15T03:12:16;46.93;;;25.27;;
20861;SDS011;10591;52.532;13.348;2022-12-15T03:14:47;49.60;;;25.73;;
20861;SDS011;10591;52.532;13.348;2022-12-15T03:17:17;53.07;;;26.43;;
20861;SDS011;10591;52.532;13.348;2022-12-15T03:19:49;49.87;;;25.67;;
20861;SDS011;10591;52.532;13.348;2022-12-15T03:22:22;54.43;;;27.10;;
20861;SDS011;10591;52.532;13.348;2022-12-15T03:24:53;47.97;;;26.00;;
20861;SDS011;10591;52.532;13.348;2022-12-15T03:27:24;50.67;;;26.00;;
20861;SDS011;10591;52.532;13.348;2022-12-15T03:29:55;45.30;;;25.10;;
20861;SDS011;10591;52.532;13.348;2022-12-15T03:32:27;45.73;;;23.93;;
20861;SDS011;10591;52.532;13.348;2022-12-15T03:34:59;48.83;;;25.17;;
20861;SDS011;10591;52.532;13.348;2022-12-15T03:37:30;52.30;;;26.83;;
20861;SDS011;10591;52.532;13.348;2022-12-15T03:40:01;51.97;;;26.73;;
20861;SDS011;10591;52.532;13.348;2022-12-15T03:42:33;54.13;;;26.73;;
20861;SDS011;10591;52.532;13.348;2022-12-15T03:45:21;59.43;;;27.77;;
20861;SDS011;10591;52.532;13.348;2022-12-15T03:47:53;56.33;;;27.33;;
20861;SDS011;10591;52.532;13.348;2022-12-15T03:50:27;54.33;;;26.93;;
20861;SDS011;10591;52.532;13.348;2022-12-15T03:53:00;48.77;;;24.60;;
20861;SDS011;10591;52.532;13.348;2022-12-15T03:55:33;55.23;;;26.83;;
20861;SDS011;10591;52.532;13.348;2022-12-15T03:58:04;52.27;;;26.03;;
20861;SDS011;10591;52.532;13.348;2022-12-15T04:00:37;53.73;;;26.37;;
20861;SDS011;10591;52.532;13.348;2022-12-15T04:03:08;52.17;;;26.50;;
20861;SDS011;10591;52.532;13.348;2022-12-15T04:05:41;49.17;;;26.10;;
20861;SDS011;10591;52.532;13.348;2022-12-15T04:08:12;53.07;;;27.60;;
20861;SDS011;10591;52.532;13.348;2022-12-15T04:10:42;50.37;;;26.07;;
20861;SDS011;10591;52.532;13.348;2022-12-15T04:13:13;59.57;;;29.03;;
20861;SDS011;10591;52.532;13.348;2022-12-15T04:15:44;52.40;;;27.37;;
20861;SDS011;10591;52.532;13.348;2022-12-15T04:18:15;53.33;;;26.23;;
20861;SDS011;10591;52.532;13.348;2022-12-15T04:20:46;50.47;;;26.03;;
20861;SDS011;10591;52.532;13.348;2022-12-15T04:23:18;54.47;;;26.30;;
20861;SDS011;10591;52.532;13.348;2022-12-15T04:25:49;53.50;;;26.17;;
20861;SDS011;10591;52.532;13.348;2022-12-15T04:28:39;57.83;;;27.07;;
20861;SDS011;10591;52.532;13.348;2022-12-15T04:31:30;56.00;;;26.17;;
20861;SDS011;10591;52.532;13.348;2022-12-15T04:34:21;53.70;;;27.43;;
20861;SDS011;10591;52.532;13.348;2022-12-15T04:37:10;54.40;;;27.17;;
20861;SDS011;10591;52.532;13.348;2022-12-15T04:40:00;56.60;;;26.83;;
20861;SDS011;10591;52.532;13.348;2022-12-15T04:42:48;52.67;;;26.73;;
20861;SDS011;10591;52.532;13.348;2022-12-15T04:45:37;52.03;;;25.57;;
20861;SDS011;10591;52.532;13.348;2022-12-15T04:48:26;49.80;;;24.77;;
20861;SDS011;10591;52.532;13.348;2022-12-15T04:51:15;49.93;;;24.97;;
20861;SDS011;10591;52.532;13.348;2022-12-15T04:54:05;51.47;;;24.67;;
20861;SDS011;10591;52.532;13.348;2022-12-15T04:56:54;49.83;;;24.40;;
20861;SDS011;10591;52.532;13.348;2022-12-15T04:59:43;48.83;;;24.10;;
20861;SDS011;10591;52.532;13.348;2022-12-15T05:02:31;50.63;;;24.47;;
20861;SDS011;10591;52.532;13.348;2022-12-15T05:05:20;50.90;;;24.47;;
20861;SDS011;10591;52.532;13.348;2022-12-15T05:08:09;52.53;;;25.43;;
20861;SDS011;10591;52.532;13.348;2022-12-15T05:10:58;50.43;;;24.17;;
20861;SDS011;10591;52.532;13.348;2022-12-15T05:13:47;48.17;;;24.67;;
20861;SDS011;10591;52.532;13.348;2022-12-15T05:16:35;55.70;;;25.23;;
20861;SDS011;10591;52.532;13.348;2022-12-15T05:19:24;56.57;;;25.40;;
20861;SDS011;10591;52.532;13.348;2022-12-15T05:22:15;55.77;;;24.00;;
20861;SDS011;10591;52.532;13.348;2022-12-15T05:25:03;49.93;;;24.07;;
20861;SDS011;10591;52.532;13.348;2022-12-15T05:27:52;48.23;;;23.43;;
20861;SDS011;10591;52.532;13.348;2022-12-15T05:30:41;46.37;;;21.87;;
20861;SDS011;10591;52.532;13.348;2022-12-15T05:33:32;54.83;;;24.20;;
20861;SDS011;10591;52.532;13.348;2022-12-15T05:36:03;49.87;;;22.87;;
20861;SDS011;10591;52.532;13.348;2022-12-15T05:38:34;50.73;;;24.00;;
20861;SDS011;10591;52.532;13.348;2022-12-15T05:41:08;51.33;;;23.60;;
20861;SDS011;10591;52.532;13.348;2022-12-15T05:43:41;50.13;;;23.80;;
20861;SDS011;10591;52.532;13.348;2022-12-15T05:46:13;51.17;;;24.43;;
20861;SDS011;10591;52.532;13.348;2022-12-15T05:48:44;47.63;;;23.50;;
20861;SDS011;10591;52.532;13.348;2022-12-15T05:51:14;49.00;;;25.03;;
20861;SDS011;10591;52.532;13.348;2022-12-15T05:53:47;50.10;;;24.60;;
20861;SDS011;10591;52.532;13.348;2022-12-15T05:56:18;50.63;;;25.17;;
20861;SDS011;10591;52.532;13.348;2022-12-15T05:58:49;49.77;;;24.60;;
20861;SDS011;10591;52.532;13.348;2022-12-15T06:01:20;52.90;;;24.93;;
20861;SDS011;10591;52.532;13.348;2022-12-15T06:03:51;51.93;;;24.83;;
20861;SDS011;10591;52.532;13.348;2022-12-15T06:06:25;48.80;;;23.00;;
20861;SDS011;10591;52.532;13.348;2022-12-15T06:08:58;50.63;;;23.80;;
20861;SDS011;10591;52.532;13.348;2022-12-15T06:11:31;49.87;;;23.03;;
20861;SDS011;10591;52.532;13.348;2022-12-15T06:14:04;44.07;;;22.63;;
20861;SDS011;10591;52.532;13.348;2022-12-15T06:16:36;58.60;;;25.80;;
20861;SDS011;10591;52.532;13.348;2022-12-15T06:19:09;51.60;;;23.10;;
20861;SDS011;10591;52.532;13.348;2022-12-15T06:21:42;46.73;;;22.90;;
20861;SDS011;10591;52.532;13.348;2022-12-15T06:24:14;46.27;;;22.23;;
20861;SDS011;10591;52.532;13.348;2022-12-15T06:26:46;49.60;;;24.53;;
20861;SDS011;10591;52.532;13.348;2022-12-15T06:29:22;49.23;;;22.40;;
20861;SDS011;10591;52.532;13.348;2022-12-15T06:31:52;48.80;;;22.83;;
20861;SDS011;10591;52.532;13.348;2022-12-15T06:34:23;54.30;;;24.67;;
20861;SDS011;10591;52.532;13.348;2022-12-15T06:36:54;43.77;;;22.10;;
20861;SDS011;10591;52.532;13.348;2022-12-15T06:39:26;49.17;;;22.50;;
20861;SDS011;10591;52.532;13.348;2022-12-15T06:41:56;47.23;;;22.53;;
20861;SDS011;10591;52.532;13.348;2022-12-15T06:44:31;50.07;;;22.50;;
20861;SDS011;10591;52.532;13.348;2022-12-15T06:47:04;49.50;;;22.60;;
20861;SDS011;10591;52.532;13.348;2022-12-15T06:49:35;40.97;;;21.47;;
20861;SDS011;10591;52.532;13.348;2022-12-15T06:52:07;42.97;;;21.40;;
20861;SDS011;10591;52.532;13.348;2022-12-15T06:54:37;41.17;;;19.30;;
20861;SDS011;10591;52.532;13.348;2022-12-15T06:57:11;49.97;;;22.83;;
20861;SDS011;10591;52.532;13.348;2022-12-15T06:59:42;47.40;;;22.30;;
20861;SDS011;10591;52.532;13.348;2022-12-15T07:02:16;46.03;;;21.53;;
20861;SDS011;10591;52.532;13.348;2022-12-15T07:04:49;42.87;;;21.57;;
20861;SDS011;10591;52.532;13.348;2022-12-15T07:07:20;43.60;;;23.27;;
20861;SDS011;10591;52.532;13.348;2022-12-15T07:09:53;50.27;;;23.63;;
20861;SDS011;10591;52.532;13.348;2022-12-15T07:12:24;50.53;;;24.47;;
20861;SDS011;10591;52.532;13.348;2022-12-15T07:14:57;44.77;;;22.43;;
20861;SDS011;10591;52.532;13.348;2022-12-15T07:17:31;52.43;;;23.10;;
20861;SDS011;10591;52.532;13.348;2022-12-15T07:20:06;48.17;;;23.00;;
20861;SDS011;10591;52.532;13.348;2022-12-15T07:22:38;50.47;;;24.23;;
20861;SDS011;10591;52.532;13.348;2022-12-15T07:25:16;47.53;;;22.80;;
20861;SDS011;10591;52.532;13.348;2022-12-15T07:27:47;41.80;;;22.13;;
20861;SDS011;10591;52.532;13.348;2022-12-15T07:30:20;46.77;;;22.70;;
20861;SDS011;10591;52.532;13.348;2022-12-15T07:32:58;49.80;;;23.33;;
20861;SDS011;10591;52.532;13.348;2022-12-15T07:35:31;43.37;;;22.13;;
20861;SDS011;10591;52.532;13.348;2022-12-15T07:38:04;46.43;;;22.47;;
20861;SDS011;10591;52.532;13.348;2022-12-15T07:40:40;39.73;;;21.40;;
20861;SDS011;10591;52.532;13.348;2022-12-15T07:43:12;41.53;;;21.80;;
20861;SDS011;10591;52.532;13.348;2022-12-15T07:45:44;43.90;;;21.40;;
20861;SDS011;10591;52.532;13.348;2022-12-15T07:48:19;46.43;;;22.37;;
20861;SDS011;10591;52.532;13.348;2022-12-15T07:50:53;40.30;;;20.80;;
20861;SDS011;10591;52.532;13.348;2022-12-15T07:53:26;38.90;;;20.70;;
20861;SDS011;10591;52.532;13.348;2022-12-15T07:56:00;41.20;;;20.77;;
20861;SDS011;10591;52.532;13.348;2022-12-15T07:58:35;40.63;;;21.73;;
20861;SDS011;10591;52.532;13.348;2022-12-15T08:01:07;39.37;;;19.47;;
20861;SDS011;10591;52.532;13.348;2022-12-15T08:03:40;44.10;;;22.50;;
20861;SDS011;10591;52.532;13.348;2022-12-15T08:06:12;40.30;;;21.43;;
20861;SDS011;10591;52.532;13.348;2022-12-15T08:08:44;38.33;;;20.50;;
20861;SDS011;10591;52.532;13.348;2022-12-15T08:11:16;38.83;;;20.00;;
20861;SDS011;10591;52.532;13.348;2022-12-15T08:13:49;38.10;;;20.37;;
20861;SDS011;10591;52.532;13.348;2022-12-15T08:16:22;39.17;;;20.67;;
20861;SDS011;10591;52.532;13.348;2022-12-15T08:18:53;37.07;;;20.67;;
20861;SDS011;10591;52.532;13.348;2022-12-15T08:21:27;37.90;;;19.10;;
20861;SDS011;10591;52.532;13.348;2022-12-15T08:24:01;41.33;;;19.93;;
20861;SDS011;10591;52.532;13.348;2022-12-15T08:26:32;41.27;;;19.87;;
20861;SDS011;10591;52.532;13.348;2022-12-15T08:29:04;39.43;;;20.83;;
20861;SDS011;10591;52.532;13.348;2022-12-15T08:31:37;39.50;;;21.57;;
20861;SDS011;10591;52.532;13.348;2022-12-15T08:34:10;37.67;;;20.07;;
20861;SDS011;10591;52.532;13.348;2022-12-15T08:36:40;44.37;;;22.13;;
20861;SDS011;10591;52.532;13.348;2022-12-15T08:39:11;40.57;;;21.23;;
20861;SDS011;10591;52.532;13.348;2022-12-15T08:41:41;36.77;;;19.27;;
20861;SDS011;10591;52.532;13.348;2022-12-15T08:44:12;41.63;;;20.70;;
20861;SDS011;10591;52.532;13.348;2022-12-15T08:46:44;40.97;;;20.50;;
20861;SDS011;10591;52.532;13.348;2022-12-15T08:49:15;42.30;;;21.70;;
20861;SDS011;10591;52.532;13.348;2022-12-15T08:51:48;39.03;;;19.93;;
20861;SDS011;10591;52.532;13.348;2022-12-15T08:54:19;44.27;;;22.00;;
20861;SDS011;10591;52.532;13.348;2022-12-15T08:56:51;37.53;;;20.33;;
20861;SDS011;10591;52.532;13.348;2022-12-15T08:59:24;32.10;;;18.40;;
20861;SDS011;10591;52.532;13.348;2022-12-15T09:01:58;44.33;;;21.43;;
20861;SDS011;10591;52.532;13.348;2022-12-15T09:04:30;35.80;;;19.73;;
20861;SDS011;10591;52.532;13.348;2022-12-15T09:07:02;34.70;;;19.50;;
20861;SDS011;10591;52.532;13.348;2022-12-15T09:09:33;38.00;;;21.30;;
20861;SDS011;10591;52.532;13.348;2022-12-15T09:12:05;34.53;;;19.97;;
20861;SDS011;10591;52.532;13.348;2022-12-15T09:14:37;40.83;;;21.17;;
20861;SDS011;10591;52.532;13.348;2022-12-15T09:17:08;37.90;;;20.53;;
20861;SDS011;10591;52.532;13.348;2022-12-15T09:19:39;38.37;;;19.60;;
20861;SDS011;10591;52.532;13.348;2022-12-15T09:22:09;41.00;;;21.87;;
20861;SDS011;10591;52.532;13.348;2022-12-15T09:24:42;39.87;;;21.90;;
20861;SDS011;10591;52.532;13.348;2022-12-15T09:27:13;40.97;;;23.10;;
20861;SDS011;10591;52.532;13.348;2022-12-15T09:29:45;35.97;;;20.67;;
20861;SDS011;10591;52.532;13.348;2022-12-15T09:32:16;35.67;;;20.90;;
20861;SDS011;10591;52.532;13.348;2022-12-15T09:34:51;35.73;;;20.27;;
20861;SDS011;10591;52.532;13.348;2022-12-15T09:37:22;40.83;;;22.03;;
20861;SDS011;10591;52.532;13.348;2022-12-15T09:39:53;39.47;;;21.70;;
20861;SDS011;10591;52.532;13.348;2022-12-15T09:42:24;37.47;;;20.50;;
20861;SDS011;10591;52.532;13.348;2022-12-15T09:45:14;40.67;;;21.40;;
20861;SDS011;10591;52.532;13.348;2022-12-15T09:47:54;36.60;;;20.47;;
20861;SDS011;10591;52.532;13.348;2022-12-15T09:50:38;35.83;;;19.10;;
20861;SDS011;10591;52.532;13.348;2022-12-15T09:53:13;37.03;;;20.97;;
20861;SDS011;10591;52.532;13.348;2022-12-15T09:55:55;36.53;;;21.10;;
20861;SDS011;10591;52.532;13.348;2022-12-15T10:06:50;34.47;;;20.03;;
20861;SDS011;10591;52.532;13.348;2022-12-15T10:09:30;36.73;;;20.27;;
20861;SDS011;10591;52.532;13.348;2022-12-15T10:12:04;39.90;;;21.03;;
20861;SDS011;10591;52.532;13.348;2022-12-15T10:14:40;36.07;;;19.73;;
20861;SDS011;10591;52.532;13.348;2022-12-15T10:17:19;35.43;;;20.40;;
20861;SDS011;10591;52.532;13.348;2022-12-15T10:22:32;42.73;;;21.67;;
20861;SDS011;10591;52.532;13.348;2022-12-15T10:25:15;36.23;;;20.27;;
20861;SDS011;10591;52.532;13.348;2022-12-15T10:30:51;39.00;;;19.57;;
20861;SDS011;10591;52.532;13.348;2022-12-15T10:33:35;38.03;;;20.07;;
20861;SDS011;10591;52.532;13.348;2022-12-15T10:36:14;38.67;;;21.13;;
20861;SDS011;10591;52.532;13.348;2022-12-15T10:38:44;41.57;;;21.43;;
20861;SDS011;10591;52.532;13.348;2022-12-15T10:41:23;33.37;;;19.77;;
20861;SDS011;10591;52.532;13.348;2022-12-15T10:43:55;37.07;;;20.03;;
20861;SDS011;10591;52.532;13.348;2022-12-15T10:46:27;35.93;;;20.83;;
20861;SDS011;10591;52.532;13.348;2022-12-15T10:51:48;43.23;;;22.60;;
20861;SDS011;10591;52.532;13.348;2022-12-15T10:54:42;42.43;;;21.90;;
20861;SDS011;10591;52.532;13.348;2022-12-15T10:57:29;38.77;;;21.07;;
20861;SDS011;10591;52.532;13.348;2022-12-15T10:59:46;41.87;;;21.23;;
20861;SDS011;10591;52.532;13.348;2022-12-15T11:02:25;39.70;;;21.67;;
20861;SDS011;10591;52.532;13.348;2022-12-15T11:05:03;37.80;;;20.97;;
20861;SDS011;10591;52.532;13.348;2022-12-15T11:07:52;43.40;;;23.03;;
20861;SDS011;10591;52.532;13.348;2022-12-15T11:10:30;37.97;;;21.10;;
20861;SDS011;10591;52.532;13.348;2022-12-15T11:13:21;36.73;;;20.20;;
20861;SDS011;10591;52.532;13.348;2022-12-15T11:15:54;39.30;;;21.37;;
20861;SDS011;10591;52.532;13.348;2022-12-15T11:18:26;35.57;;;20.77;;
20861;SDS011;10591;52.532;13.348;2022-12-15T11:21:03;35.43;;;19.97;;
20861;SDS011;10591;52.532;13.348;2022-12-15T11:23:54;37.07;;;20.93;;
20861;SDS011;10591;52.532;13.348;2022-12-15T11:29:32;35.60;;;19.60;;
20861;SDS011;10591;52.532;13.348;2022-12-15T11:32:23;37.13;;;21.60;;
20861;SDS011;10591;52.532;13.348;2022-12-15T11:34:56;35.20;;;20.60;;
20861;SDS011;10591;52.532;13.348;2022-12-15T11:37:36;39.23;;;20.60;;
20861;SDS011;10591;52.532;13.348;2022-12-15T11:42:55;36.37;;;19.93;;
20861;SDS011;10591;52.532;13.348;2022-12-15T11:48:14;39.50;;;21.77;;
20861;SDS011;10591;52.532;13.348;2022-12-15T11:51:08;36.27;;;21.33;;
20861;SDS011;10591;52.532;13.348;2022-12-15T12:01:56;33.77;;;20.93;;
20861;SDS011;10591;52.532;13.348;2022-12-15T12:07:39;35.90;;;20.13;;
20861;SDS011;10591;52.532;13.348;2022-12-15T12:10:27;32.43;;;19.53;;
20861;SDS011;10591;52.532;13.348;2022-12-15T12:18:41;31.20;;;19.20;;
20861;SDS011;10591;52.532;13.348;2022-12-15T12:21:18;31.77;;;20.17;;
20861;SDS011;10591;52.532;13.348;2022-12-15T12:24:03;34.10;;;20.20;;
20861;SDS011;10591;52.532;13.348;2022-12-15T12:26:44;37.10;;;20.37;;
20861;SDS011;10591;52.532;13.348;2022-12-15T12:29:20;33.97;;;19.83;;
20861;SDS011;10591;52.532;13.348;2022-12-15T12:35:01;30.37;;;18.67;;
20861;SDS011;10591;52.532;13.348;2022-12-15T12:43:09;34.20;;;19.20;;
20861;SDS011;10591;52.532;13.348;2022-12-15T12:45:54;30.97;;;18.57;;
20861;SDS011;10591;52.532;13.348;2022-12-15T12:48:36;32.37;;;19.10;;
20861;SDS011;10591;52.532;13.348;2022-12-15T12:51:33;33.07;;;17.97;;
20861;SDS011;10591;52.532;13.348;2022-12-15T12:59:48;31.20;;;18.37;;
20861;SDS011;10591;52.532;13.348;2022-12-15T13:05:29;29.17;;;17.47;;
20861;SDS011;10591;52.532;13.348;2022-12-15T13:10:39;31.70;;;18.27;;
20861;SDS011;10591;52.532;13.348;2022-12-15T13:18:59;33.57;;;19.30;;
20861;SDS011;10591;52.532;13.348;2022-12-15T13:21:50;34.47;;;20.10;;
20861;SDS011;10591;52.532;13.348;2022-12-15T13:24:33;34.83;;;19.20;;
20861;SDS011;10591;52.532;13.348;2022-12-15T13:29:59;34.93;;;19.43;;
20861;SDS011;10591;52.532;13.348;2022-12-15T13:32:39;37.67;;;20.10;;
20861;SDS011;10591;52.532;13.348;2022-12-15T13:37:52;34.90;;;19.33;;
20861;SDS011;10591;52.532;13.348;2022-12-15T13:40:25;32.03;;;18.67;;
20861;SDS011;10591;52.532;13.348;2022-12-15T13:48:24;36.07;;;21.33;;
20861;SDS011;10591;52.532;13.348;2022-12-15T13:54:09;37.23;;;20.83;;
20861;SDS011;10591;52.532;13.348;2022-12-15T13:57:01;35.20;;;20.10;;
20861;SDS011;10591;52.532;13.348;2022-12-15T13:59:45;36.17;;;21.07;;
20861;SDS011;10591;52.532;13.348;2022-12-15T14:02:25;35.03;;;20.17;;
20861;SDS011;10591;52.532;13.348;2022-12-15T14:10:43;35.07;;;19.70;;
20861;SDS011;10591;52.532;13.348;2022-12-15T14:13:21;37.17;;;21.30;;
20861;SDS011;10591;52.532;13.348;2022-12-15T14:16:06;34.83;;;20.77;;
20861;SDS011;10591;52.532;13.348;2022-12-15T14:21:39;33.17;;;19.73;;
20861;SDS011;10591;52.532;13.348;2022-12-15T14:24:24;34.83;;;21.27;;
20861;SDS011;10591;52.532;13.348;2022-12-15T14:26:59;36.77;;;20.90;;
20861;SDS011;10591;52.532;13.348;2022-12-15T14:29:31;35.77;;;20.90;;
20861;SDS011;10591;52.532;13.348;2022-12-15T14:32:04;34.30;;;19.50;;
20861;SDS011;10591;52.532;13.348;2022-12-15T14:34:39;36.70;;;20.13;;
20861;SDS011;10591;52.532;13.348;2022-12-15T14:37:17;35.83;;;20.07;;
20861;SDS011;10591;52.532;13.348;2022-12-15T14:39:51;38.10;;;20.03;;
20861;SDS011;10591;52.532;13.348;2022-12-15T14:42:24;41.40;;;21.87;;
20861;SDS011;10591;52.532;13.348;2022-12-15T14:44:58;36.57;;;19.63;;
20861;SDS011;10591;52.532;13.348;2022-12-15T14:47:31;39.50;;;21.47;;
20861;SDS011;10591;52.532;13.348;2022-12-15T14:50:04;41.70;;;22.27;;
20861;SDS011;10591;52.532;13.348;2022-12-15T14:52:38;37.80;;;21.73;;
20861;SDS011;10591;52.532;13.348;2022-12-15T15:04:22;40.83;;;21.53;;
20861;SDS011;10591;52.532;13.348;2022-12-15T15:06:53;40.90;;;20.93;;
20861;SDS011;10591;52.532;13.348;2022-12-15T15:09:30;40.87;;;21.67;;
20861;SDS011;10591;52.532;13.348;2022-12-15T15:12:39;40.87;;;23.00;;
20861;SDS011;10591;52.532;13.348;2022-12-15T15:14:50;40.73;;;22.07;;
20861;SDS011;10591;52.532;13.348;2022-12-15T15:17:26;46.37;;;22.27;;
20861;SDS011;10591;52.532;13.348;2022-12-15T15:20:19;41.83;;;21.77;;
20861;SDS011;10591;52.532;13.348;2022-12-15T15:23:10;38.07;;;20.30;;
20861;SDS011;10591;52.532;13.348;2022-12-15T15:25:39;41.87;;;22.10;;
20861;SDS011;10591;52.532;13.348;2022-12-15T15:30:59;38.43;;;22.20;;
20861;SDS011;10591;52.532;13.348;2022-12-15T15:33:36;41.97;;;22.17;;
20861;SDS011;10591;52.532;13.348;2022-12-15T15:36:08;46.10;;;22.30;;
20861;SDS011;10591;52.532;13.348;2022-12-15T15:38:40;39.93;;;22.27;;
20861;SDS011;10591;52.532;13.348;2022-12-15T15:41:19;39.30;;;22.10;;
20861;SDS011;10591;52.532;13.348;2022-12-15T15:43:51;41.17;;;22.07;;
20861;SDS011;10591;52.532;13.348;2022-12-15T15:46:22;37.13;;;21.57;;
20861;SDS011;10591;52.532;13.348;2022-12-15T15:48:56;39.10;;;21.40;;
20861;SDS011;10591;52.532;13.348;2022-12-15T15:51:32;38.93;;;22.67;;
20861;SDS011;10591;52.532;13.348;2022-12-15T15:54:06;43.80;;;22.77;;
20861;SDS011;10591;52.532;13.348;2022-12-15T15:56:46;42.03;;;22.83;;
20861;SDS011;10591;52.532;13.348;2022-12-15T15:59:18;41.47;;;23.10;;
20861;SDS011;10591;52.532;13.348;2022-12-15T16:01:53;41.63;;;23.43;;
20861;SDS011;10591;52.532;13.348;2022-12-15T16:04:25;38.53;;;22.20;;
20861;SDS011;10591;52.532;13.348;2022-12-15T16:06:57;40.73;;;22.93;;
20861;SDS011;10591;52.532;13.348;2022-12-15T16:09:28;41.57;;;24.23;;
20861;SDS011;10591;52.532;13.348;2022-12-15T16:11:59;51.37;;;26.70;;
20861;SDS011;10591;52.532;13.348;2022-12-15T16:14:30;40.07;;;23.83;;
20861;SDS011;10591;52.532;13.348;2022-12-15T16:17:04;42.40;;;24.80;;
20861;SDS011;10591;52.532;13.348;2022-12-15T16:19:35;42.73;;;23.13;;
20861;SDS011;10591;52.532;13.348;2022-12-15T16:22:11;47.90;;;24.57;;
20861;SDS011;10591;52.532;13.348;2022-12-15T16:24:46;47.30;;;25.10;;
20861;SDS011;10591;52.532;13.348;2022-12-15T16:27:18;43.03;;;24.77;;
20861;SDS011;10591;52.532;13.348;2022-12-15T16:29:49;42.77;;;24.10;;
20861;SDS011;10591;52.532;13.348;2022-12-15T16:32:20;43.83;;;23.57;;
20861;SDS011;10591;52.532;13.348;2022-12-15T16:34:50;47.87;;;26.13;;
20861;SDS011;10591;52.532;13.348;2022-12-15T16:37:24;47.27;;;23.43;;
20861;SDS011;10591;52.532;13.348;2022-12-15T16:39:58;45.33;;;24.60;;
20861;SDS011;10591;52.532;13.348;2022-12-15T16:42:31;46.30;;;24.53;;
20861;SDS011;10591;52.532;13.348;2022-12-15T16:45:16;45.47;;;23.97;;
20861;SDS011;10591;52.532;13.348;2022-12-15T16:47:50;38.77;;;23.30;;
20861;SDS011;10591;52.532;13.348;2022-12-15T16:50:30;47.30;;;24.63;;
20861;SDS011;10591;52.532;13.348;2022-12-15T16:53:05;38.93;;;23.93;;
20861;SDS011;10591;52.532;13.348;2022-12-15T16:55:39;40.13;;;23.27;;
20861;SDS011;10591;52.532;13.348;2022-12-15T16:58:14;36.63;;;23.07;;
20861;SDS011;10591;52.532;13.348;2022-12-15T17:00:49;42.27;;;23.50;;